createdAt,value
2023-02-11T00:01:32.136Z,42.17
2023-02-11T00:04:01.699Z,42.39
2023-02-11T00:06:32.579Z,42.38
2023-02-11T00:09:00.699Z,42.41
2023-02-11T00:11:30.436Z,42.39
2023-02-11T00:14:15.648Z,42.57
2023-02-11T00:16:43.494Z,42.52
2023-02-11T00:19:11.431Z,42.43
2023-02-11T00:21:40.250Z,42.34
2023-02-11T00:24:07.978Z,42.71
2023-02-11T00:26:36.275Z,42.77
2023-02-11T00:29:05.506Z,42.78
2023-02-11T00:31:34.408Z,42.75
2023-02-11T00:34:02.523Z,42.72
2023-02-11T00:36:30.974Z,42.70
2023-02-11T00:38:59.742Z,42.91
2023-02-11T00:41:29.137Z,42.87
2023-02-11T00:43:57.310Z,42.50
2023-02-11T00:46:25.343Z,42.66
2023-02-11T00:48:57.562Z,42.87
2023-02-11T00:51:28.176Z,42.71
2023-02-11T00:53:56.142Z,42.93
2023-02-11T00:56:24.143Z,42.76
2023-02-11T00:58:52.030Z,42.88
2023-02-11T01:01:20.463Z,42.86
2023-02-11T01:03:48.457Z,43.12
2023-02-11T01:06:16.890Z,42.99
2023-02-11T01:08:45.531Z,43.04
2023-02-11T01:11:17.854Z,43.09
2023-02-11T01:13:48.920Z,43.08
2023-02-11T01:16:18.315Z,43.42
2023-02-11T01:18:47.556Z,43.31
2023-02-11T01:21:18.448Z,43.30
2023-02-11T01:23:46.179Z,43.46
2023-02-11T01:26:14.173Z,43.37
2023-02-11T01:28:42.239Z,43.29
2023-02-11T01:31:10.064Z,43.28
2023-02-11T01:33:38.026Z,43.50
2023-02-11T01:36:08.759Z,43.28
2023-02-11T01:38:37.284Z,43.50
2023-02-11T01:41:09.765Z,43.67
2023-02-11T01:43:46.544Z,43.73
2023-02-11T01:46:31.385Z,43.54
2023-02-11T01:49:18.660Z,43.47
2023-02-11T01:52:02.062Z,43.53
2023-02-11T01:55:01.058Z,43.45
2023-02-11T01:57:34.420Z,43.56
2023-02-11T02:00:24.113Z,43.35
2023-02-11T02:03:31.813Z,43.49
2023-02-11T02:06:12.456Z,43.67
2023-02-11T02:09:18.563Z,43.34
2023-02-11T02:11:46.292Z,43.82
2023-02-11T02:14:15.840Z,43.65
2023-02-11T02:16:44.560Z,43.85
2023-02-11T02:20:03.111Z,43.45
2023-02-11T02:23:05.788Z,43.78
2023-02-11T02:26:23.894Z,44.03
2023-02-11T02:29:24.967Z,43.86
2023-02-11T02:32:35.840Z,43.84
2023-02-11T02:35:36.420Z,43.95
2023-02-11T02:38:30.265Z,43.89
2023-02-11T02:41:13.069Z,43.86
2023-02-11T02:43:48.369Z,44.11
2023-02-11T02:46:27.645Z,44.20
2023-02-11T02:48:57.264Z,44.30
2023-02-11T02:52:03.734Z,44.20
2023-02-11T02:55:09.363Z,44.17
2023-02-11T02:58:54.170Z,44.13
2023-02-11T03:01:55.151Z,43.92
2023-02-11T03:05:02.539Z,44.13
2023-02-11T03:07:55.145Z,43.85
2023-02-11T03:10:34.781Z,43.91
2023-02-11T03:13:04.532Z,44.23
2023-02-11T03:15:43.229Z,44.07
2023-02-11T03:18:17.531Z,43.93
2023-02-11T03:20:50.687Z,44.00
2023-02-11T03:23:29.943Z,44.23
2023-02-11T03:26:08.757Z,44.21
2023-02-11T03:29:04.522Z,44.17
2023-02-11T03:31:51.228Z,44.19
2023-02-11T03:34:33.255Z,44.41
2023-02-11T03:37:14.613Z,44.19
2023-02-11T03:39:59.861Z,44.60
2023-02-11T03:42:38.241Z,44.64
2023-02-11T03:45:12.357Z,44.20
2023-02-11T03:47:47.198Z,44.74
2023-02-11T03:50:16.581Z,44.75
2023-02-11T03:52:46.492Z,44.63
2023-02-11T03:55:18.569Z,44.67
2023-02-11T03:57:47.725Z,44.74
2023-02-11T04:00:16.127Z,44.47
2023-02-11T04:02:44.747Z,44.63
2023-02-11T04:05:16.464Z,44.42
2023-02-11T04:07:44.481Z,44.51
2023-02-11T04:10:13.033Z,44.51
2023-02-11T04:12:41.016Z,44.46
2023-02-11T04:15:09.752Z,44.34
2023-02-11T04:17:37.646Z,44.45
2023-02-11T04:20:05.817Z,44.66
2023-02-11T04:22:33.768Z,44.38
2023-02-11T04:25:01.600Z,44.61
2023-02-11T04:27:29.365Z,44.61
2023-02-11T04:29:57.095Z,44.59
2023-02-11T04:32:24.935Z,45.01
2023-02-11T04:34:54.241Z,44.32
2023-02-11T04:37:22.478Z,44.49
2023-02-11T04:39:50.208Z,44.24
2023-02-11T04:42:17.877Z,44.60
2023-02-11T04:44:45.609Z,44.78
2023-02-11T04:47:15.397Z,44.44
2023-02-11T04:49:43.379Z,44.53
2023-02-11T04:52:11.455Z,44.82
2023-02-11T04:54:40.549Z,44.55
2023-02-11T04:57:08.428Z,44.85
2023-02-11T04:59:36.101Z,44.54
2023-02-11T05:02:04.243Z,44.42
2023-02-11T05:04:32.164Z,44.68
2023-02-11T05:07:00.053Z,44.29
2023-02-11T05:09:27.809Z,45.07
2023-02-11T05:11:56.150Z,44.87
2023-02-11T05:14:23.935Z,44.91
2023-02-11T05:16:51.757Z,44.78
2023-02-11T05:19:19.758Z,45.64
2023-02-11T05:22:01.467Z,45.04
2023-02-11T05:24:32.042Z,44.97
2023-02-11T05:27:00.599Z,45.25
2023-02-11T05:29:28.606Z,45.60
2023-02-11T05:31:56.518Z,45.51
2023-02-11T05:34:24.224Z,45.58
2023-02-11T05:36:54.808Z,45.51
2023-02-11T05:39:22.598Z,45.39
2023-02-11T05:41:50.377Z,45.41
2023-02-11T05:44:18.224Z,45.02
2023-02-11T05:46:46.258Z,45.09
2023-02-11T05:49:14.171Z,45.49
2023-02-11T05:51:42.076Z,45.16
2023-02-11T05:54:10.753Z,45.35
2023-02-11T05:56:38.529Z,45.22
2023-02-11T05:59:06.615Z,45.22
2023-02-11T06:01:34.300Z,44.95
2023-02-11T06:04:05.052Z,45.40
2023-02-11T06:06:32.852Z,45.37
2023-02-11T06:09:00.652Z,45.20
2023-02-11T06:11:28.450Z,45.37
2023-02-11T06:13:56.228Z,45.11
2023-02-11T06:16:24.539Z,45.28
2023-02-11T06:18:52.404Z,45.34
2023-02-11T06:21:20.392Z,45.32
2023-02-11T06:23:49.144Z,45.36
2023-02-11T06:26:20.450Z,45.12
2023-02-11T06:28:48.739Z,45.59
2023-02-11T06:31:17.281Z,45.08
2023-02-11T06:33:45.218Z,45.00
2023-02-11T06:36:19.550Z,45.32
2023-02-11T06:38:48.410Z,45.39
2023-02-11T06:41:20.248Z,45.45
2023-02-11T06:43:48.814Z,45.46
2023-02-11T06:46:16.862Z,45.61
2023-02-11T06:48:45.123Z,45.38
2023-02-11T06:51:14.883Z,45.79
2023-02-11T06:53:46.168Z,45.64
2023-02-11T06:56:22.430Z,45.51
2023-02-11T06:58:55.467Z,45.55
2023-02-11T07:01:25.934Z,45.79
2023-02-11T07:03:54.618Z,45.59
2023-02-11T07:06:27.722Z,45.70
2023-02-11T07:08:56.433Z,45.58
2023-02-11T07:11:29.127Z,45.65
2023-02-11T07:14:03.877Z,45.64
2023-02-11T07:16:33.001Z,45.53
2023-02-11T07:19:01.309Z,45.25
2023-02-11T07:21:29.925Z,45.64
2023-02-11T07:23:57.700Z,45.67
2023-02-11T07:26:29.082Z,45.59
2023-02-11T07:28:56.817Z,45.39
2023-02-11T07:31:29.190Z,45.85
2023-02-11T07:34:00.477Z,45.53
2023-02-11T07:36:31.846Z,45.60
2023-02-11T07:39:00.300Z,45.41
2023-02-11T07:41:28.440Z,45.65
2023-02-11T07:43:56.511Z,45.61
2023-02-11T07:46:27.758Z,45.95
2023-02-11T07:48:56.225Z,45.85
2023-02-11T07:51:29.378Z,46.11
2023-02-11T07:53:59.661Z,45.76
2023-02-11T07:56:29.512Z,45.69
2023-02-11T07:59:01.842Z,45.88
2023-02-11T08:01:31.110Z,45.96
2023-02-11T08:04:01.190Z,46.00
2023-02-11T08:06:33.494Z,45.91
2023-02-11T08:09:10.678Z,46.21
2023-02-11T08:11:38.494Z,46.29
2023-02-11T08:14:06.186Z,46.06
2023-02-11T08:16:36.840Z,46.17
2023-02-11T08:19:10.388Z,46.02
2023-02-11T08:21:39.449Z,46.22
2023-02-11T08:24:07.962Z,46.06
2023-02-11T08:26:36.543Z,45.81
2023-02-11T08:29:10.872Z,45.55
2023-02-11T08:31:42.299Z,46.08
2023-02-11T08:34:11.565Z,45.93
2023-02-11T08:36:41.607Z,46.25
2023-02-11T08:39:19.668Z,45.78
2023-02-11T08:41:50.929Z,45.90
2023-02-11T08:44:20.352Z,46.06
2023-02-11T08:46:49.064Z,46.21
2023-02-11T08:49:17.575Z,45.72
2023-02-11T08:51:45.965Z,46.31
2023-02-11T08:54:33.680Z,46.30
2023-02-11T08:57:02.306Z,46.58
2023-02-11T08:59:39.918Z,46.54
2023-02-11T09:02:12.900Z,46.12
2023-02-11T09:04:41.198Z,46.15
2023-02-11T09:07:09.110Z,45.95
2023-02-11T09:09:36.851Z,45.82
2023-02-11T09:12:05.302Z,45.70
2023-02-11T09:14:33.150Z,46.07
2023-02-11T09:17:00.992Z,46.20
2023-02-11T09:19:28.968Z,45.76
2023-02-11T09:21:56.959Z,46.15
2023-02-11T09:24:24.876Z,46.61
2023-02-11T09:26:52.688Z,46.04
2023-02-11T09:29:20.774Z,45.68
2023-02-11T09:31:48.871Z,46.13
2023-02-11T09:34:16.900Z,46.08
2023-02-11T09:36:44.696Z,45.97
2023-02-11T09:39:17.346Z,45.91
2023-02-11T09:42:30.905Z,45.51
2023-02-11T09:45:00.543Z,45.99
2023-02-11T09:47:47.228Z,45.70
2023-02-11T09:50:30.398Z,45.69
2023-02-11T09:53:25.319Z,45.48
2023-02-11T09:55:57.144Z,45.81
2023-02-11T09:58:39.905Z,45.52
2023-02-11T10:01:44.603Z,45.31
2023-02-11T10:05:15.664Z,44.95
2023-02-11T10:08:20.176Z,45.52
2023-02-11T10:10:59.944Z,45.23
2023-02-11T10:13:33.351Z,45.34
2023-02-11T10:16:31.234Z,45.09
2023-02-11T10:19:36.587Z,45.06
2023-02-11T10:22:45.331Z,44.96
2023-02-11T10:25:24.177Z,45.31
2023-02-11T10:27:55.079Z,45.36
2023-02-11T10:30:59.924Z,45.31
2023-02-11T10:34:00.100Z,45.01
2023-02-11T10:36:33.807Z,45.11
2023-02-11T10:39:17.325Z,44.95
2023-02-11T10:41:55.345Z,45.04
2023-02-11T10:45:02.706Z,44.76
2023-02-11T10:47:37.532Z,44.82
2023-02-11T10:50:38.521Z,44.72
2023-02-11T10:53:26.476Z,44.89
2023-02-11T10:55:57.430Z,44.87
2023-02-11T10:58:54.484Z,44.46
2023-02-11T11:01:24.725Z,44.60
2023-02-11T11:03:53.526Z,44.57
2023-02-11T11:06:33.781Z,44.23
2023-02-11T11:09:02.056Z,44.53
2023-02-11T11:11:30.186Z,44.35
2023-02-11T11:14:03.288Z,44.33
2023-02-11T11:16:36.022Z,44.45
2023-02-11T11:19:07.024Z,44.44
2023-02-11T11:21:49.795Z,44.02
2023-02-11T11:24:40.539Z,43.64
2023-02-11T11:27:21.865Z,43.93
2023-02-11T11:29:55.933Z,43.83
2023-02-11T11:32:33.718Z,44.02
2023-02-11T11:35:09.549Z,43.95
2023-02-11T11:37:38.862Z,43.93
2023-02-11T11:40:32.108Z,43.62
2023-02-11T11:43:14.393Z,44.02
2023-02-11T11:45:59.427Z,43.57
2023-02-11T11:48:38.340Z,43.36
2023-02-11T11:51:11.776Z,43.89
2023-02-11T11:53:58.629Z,43.67
2023-02-11T11:56:35.563Z,43.70
2023-02-11T11:59:17.112Z,43.59
2023-02-11T12:02:25.487Z,43.60
2023-02-11T12:05:13.796Z,43.30
2023-02-11T12:08:08.505Z,43.53
2023-02-11T12:10:51.267Z,43.33
2023-02-11T12:13:27.598Z,43.55
2023-02-11T12:16:33.727Z,43.33
2023-02-11T12:19:24.762Z,43.42
2023-02-11T12:22:02.009Z,43.43
2023-02-11T12:24:56.269Z,43.61
2023-02-11T12:27:51.142Z,43.52
2023-02-11T12:30:39.518Z,43.50
2023-02-11T12:33:26.830Z,43.24
2023-02-11T12:36:55.348Z,43.36
2023-02-11T12:39:51.871Z,43.22
2023-02-11T12:42:56.843Z,43.47
2023-02-11T12:45:51.997Z,43.19
2023-02-11T12:49:04.731Z,43.46
2023-02-11T12:52:03.180Z,43.57
2023-02-11T12:54:44.875Z,43.15
2023-02-11T12:57:28.400Z,43.68
2023-02-11T13:00:25.401Z,43.59
2023-02-11T13:03:17.881Z,43.29
2023-02-11T13:05:59.012Z,43.39
2023-02-11T13:08:50.108Z,43.35
2023-02-11T13:11:19.306Z,43.32
2023-02-11T13:14:12.473Z,43.18
2023-02-11T13:16:50.102Z,43.34
2023-02-11T13:19:44.207Z,43.29
2023-02-11T13:22:49.872Z,43.21
2023-02-11T13:25:48.406Z,42.87
2023-02-11T13:28:56.795Z,42.86
2023-02-11T13:31:27.482Z,43.20
2023-02-11T13:33:55.518Z,43.26
2023-02-11T13:36:32.902Z,42.97
2023-02-11T13:39:05.881Z,43.02
2023-02-11T13:41:39.171Z,43.08
2023-02-11T13:44:09.927Z,42.99
2023-02-11T13:47:01.274Z,43.06
2023-02-11T13:49:54.542Z,42.94
2023-02-11T13:52:28.747Z,43.03
2023-02-11T13:55:13.707Z,42.66
2023-02-11T13:57:42.585Z,42.91
2023-02-11T14:00:35.218Z,42.62
2023-02-11T14:03:56.233Z,42.65
2023-02-11T14:06:47.570Z,42.81
2023-02-11T14:09:17.195Z,42.90
2023-02-11T14:11:46.665Z,42.71
2023-02-11T14:14:28.152Z,42.37
2023-02-11T14:16:59.136Z,42.41
2023-02-11T14:19:45.913Z,42.28
2023-02-11T14:22:44.354Z,42.27
2023-02-11T14:25:26.829Z,42.26
2023-02-11T14:27:59.249Z,42.24
2023-02-11T14:30:56.253Z,42.03
2023-02-11T14:33:52.231Z,42.05
2023-02-11T14:36:53.676Z,42.14
2023-02-11T14:39:47.643Z,42.08
2023-02-11T14:42:27.047Z,42.19
2023-02-11T14:45:11.603Z,42.27
2023-02-11T14:48:14.561Z,42.01
2023-02-11T14:50:49.729Z,42.09
2023-02-11T14:53:43.043Z,42.39
2023-02-11T14:56:26.432Z,42.11
2023-02-11T14:59:02.723Z,42.16
2023-02-11T15:01:35.367Z,42.05
2023-02-11T15:04:06.422Z,42.00
2023-02-11T15:06:49.691Z,41.96
2023-02-11T15:09:29.386Z,41.99
2023-02-11T15:11:58.717Z,41.96
2023-02-11T15:14:34.492Z,41.96
2023-02-11T15:17:07.925Z,42.04
2023-02-11T15:19:41.555Z,42.02
2023-02-11T15:22:21.844Z,41.98
2023-02-11T15:25:14.894Z,41.90
2023-02-11T15:27:48.436Z,42.06
2023-02-11T15:30:22.399Z,42.06
2023-02-11T15:32:59.257Z,42.06
2023-02-11T15:35:31.440Z,42.05
2023-02-11T15:38:00.013Z,42.22
2023-02-11T15:40:33.071Z,42.13
2023-02-11T15:43:10.469Z,42.08
2023-02-11T15:46:01.818Z,42.08
2023-02-11T15:48:42.587Z,42.08
2023-02-11T15:51:35.471Z,41.93
2023-02-11T15:54:22.330Z,42.02
2023-02-11T15:56:59.744Z,41.98
2023-02-11T15:59:38.607Z,42.04
2023-02-11T16:02:32.613Z,41.88
2023-02-11T16:05:09.643Z,41.88
2023-02-11T16:07:46.325Z,41.88
2023-02-11T16:10:30.483Z,41.88
2023-02-11T16:13:25.731Z,41.91
2023-02-11T16:16:02.414Z,42.03
2023-02-11T16:18:52.155Z,42.10
2023-02-11T16:21:42.744Z,42.07
2023-02-11T16:24:28.020Z,42.14
2023-02-11T16:27:06.719Z,42.26
2023-02-11T16:29:37.581Z,42.31
2023-02-11T16:32:20.464Z,42.26
2023-02-11T16:34:49.147Z,42.27
2023-02-11T16:37:17.802Z,42.36
2023-02-11T16:39:45.525Z,42.26
2023-02-11T16:42:13.537Z,42.40
2023-02-11T16:44:41.330Z,42.29
2023-02-11T16:47:24.021Z,42.27
2023-02-11T16:49:52.264Z,42.46
2023-02-11T16:52:21.904Z,42.43
2023-02-11T16:54:50.073Z,42.44
2023-02-11T16:57:26.956Z,42.52
2023-02-11T16:59:56.344Z,42.52
2023-02-11T17:02:31.180Z,42.55
2023-02-11T17:05:06.292Z,42.43
2023-02-11T17:07:34.444Z,42.66
2023-02-11T17:10:02.195Z,42.45
2023-02-11T17:12:30.101Z,42.41
2023-02-11T17:14:57.954Z,42.58
2023-02-11T17:17:25.818Z,42.49
2023-02-11T17:19:53.620Z,42.56
2023-02-11T17:22:21.482Z,42.48
2023-02-11T17:24:49.546Z,42.63
2023-02-11T17:27:17.784Z,42.75
2023-02-11T17:29:45.552Z,42.80
2023-02-11T17:32:13.498Z,42.51
2023-02-11T17:34:41.385Z,42.74
2023-02-11T17:37:09.624Z,43.03
2023-02-11T17:39:39.114Z,43.20
2023-02-11T17:42:08.658Z,43.13
2023-02-11T17:44:37.268Z,43.32
2023-02-11T17:47:05.321Z,43.07
2023-02-11T17:49:33.261Z,43.32
2023-02-11T17:52:00.971Z,43.21
2023-02-11T17:54:28.789Z,43.36
2023-02-11T17:56:58.315Z,43.46
2023-02-11T17:59:28.435Z,43.43
2023-02-11T18:01:56.150Z,43.62
2023-02-11T18:04:24.146Z,43.30
2023-02-11T18:06:53.592Z,43.38
2023-02-11T18:09:21.397Z,43.62
2023-02-11T18:11:50.507Z,43.58
2023-02-11T18:14:22.272Z,43.23
2023-02-11T18:16:53.472Z,43.93
2023-02-11T18:19:21.388Z,43.59
2023-02-11T18:21:50.473Z,43.54
2023-02-11T18:24:18.941Z,43.41
2023-02-11T18:26:46.731Z,43.50
2023-02-11T18:29:14.674Z,43.59
2023-02-11T18:31:42.506Z,43.47
2023-02-11T18:34:11.556Z,43.56
2023-02-11T18:36:39.562Z,43.64
2023-02-11T18:39:07.664Z,43.60
2023-02-11T18:41:35.724Z,43.75
2023-02-11T18:44:04.913Z,43.77
2023-02-11T18:46:33.073Z,43.93
2023-02-11T18:49:01.353Z,43.70
2023-02-11T18:51:31.788Z,43.93
2023-02-11T18:54:01.239Z,43.79
2023-02-11T18:56:29.281Z,43.81
2023-02-11T18:59:01.210Z,43.86
2023-02-11T19:01:31.218Z,43.95
2023-02-11T19:04:03.468Z,43.83
2023-02-11T19:06:37.870Z,43.86
2023-02-11T19:09:17.529Z,44.08
2023-02-11T19:11:51.383Z,43.98
2023-02-11T19:14:31.363Z,43.94
2023-02-11T19:17:04.013Z,44.22
2023-02-11T19:19:35.020Z,44.23
2023-02-11T19:22:08.532Z,44.15
2023-02-11T19:24:38.821Z,44.51
2023-02-11T19:27:06.855Z,44.50
2023-02-11T19:29:35.113Z,44.60
2023-02-11T19:32:05.807Z,44.55
2023-02-11T19:34:40.925Z,44.41
2023-02-11T19:37:12.537Z,44.39
2023-02-11T19:39:41.252Z,44.66
2023-02-11T19:42:12.024Z,44.21
2023-02-11T19:44:39.900Z,44.50
2023-02-11T19:47:07.883Z,44.21
2023-02-11T19:49:36.007Z,44.38
2023-02-11T19:52:04.171Z,44.28
2023-02-11T19:54:31.970Z,44.57
2023-02-11T19:56:59.991Z,44.69
2023-02-11T19:59:27.841Z,44.61
2023-02-11T20:01:55.652Z,44.54
2023-02-11T20:04:25.099Z,44.43
2023-02-11T20:06:53.221Z,44.52
2023-02-11T20:09:22.712Z,44.25
2023-02-11T20:11:50.993Z,44.23
2023-02-11T20:14:19.214Z,44.21
2023-02-11T20:16:49.841Z,44.29
2023-02-11T20:19:21.585Z,44.25
2023-02-11T20:21:53.328Z,44.36
2023-02-11T20:24:21.721Z,44.47
2023-02-11T20:26:51.590Z,44.30
2023-02-11T20:29:19.430Z,44.53
2023-02-11T20:31:49.194Z,44.15
2023-02-11T20:34:18.110Z,44.25
2023-02-11T20:36:52.123Z,44.29
2023-02-11T20:39:22.670Z,44.18
2023-02-11T20:41:52.310Z,44.24
2023-02-11T20:44:23.654Z,44.27
2023-02-11T20:46:54.071Z,44.20
2023-02-11T20:49:24.828Z,44.62
2023-02-11T20:51:53.868Z,44.58
2023-02-11T20:54:23.581Z,44.67
2023-02-11T20:56:55.921Z,44.63
2023-02-11T20:59:24.188Z,44.72
2023-02-11T21:01:55.799Z,44.79
2023-02-11T21:04:27.182Z,44.40
2023-02-11T21:07:01.586Z,44.72
2023-02-11T21:09:32.385Z,44.65
2023-02-11T21:12:01.803Z,44.63
2023-02-11T21:14:30.150Z,44.89
2023-02-11T21:16:58.143Z,44.72
2023-02-11T21:19:26.251Z,44.99
2023-02-11T21:21:55.272Z,44.96
2023-02-11T21:24:23.786Z,44.60
2023-02-11T21:26:51.767Z,44.88
2023-02-11T21:29:19.578Z,44.93
2023-02-11T21:31:47.373Z,44.96
2023-02-11T21:34:16.151Z,44.88
2023-02-11T21:36:45.255Z,45.00
2023-02-11T21:39:14.849Z,44.98
2023-02-11T21:41:42.711Z,44.91
2023-02-11T21:44:11.602Z,45.08
2023-02-11T21:46:39.792Z,45.03
2023-02-11T21:49:07.544Z,44.81
2023-02-11T21:51:35.900Z,44.90
2023-02-11T21:54:04.080Z,45.01
2023-02-11T21:56:34.282Z,45.20
2023-02-11T21:59:02.893Z,45.17
2023-02-11T22:01:35.513Z,44.95
2023-02-11T22:04:04.113Z,45.30
2023-02-11T22:06:34.581Z,45.01
2023-02-11T22:09:05.936Z,45.00
2023-02-11T22:11:34.114Z,45.20
2023-02-11T22:14:02.274Z,45.08
2023-02-11T22:16:30.836Z,45.11
2023-02-11T22:18:58.988Z,45.37
2023-02-11T22:21:26.755Z,45.05
2023-02-11T22:23:55.816Z,45.27
2023-02-11T22:26:26.360Z,45.28
2023-02-11T22:28:54.896Z,45.25
2023-02-11T22:31:27.206Z,45.47
2023-02-11T22:33:56.355Z,45.40
2023-02-11T22:36:36.582Z,45.30
2023-02-11T22:39:11.103Z,45.17
2023-02-11T22:41:41.401Z,45.41
2023-02-11T22:44:10.141Z,45.16
2023-02-11T22:46:38.702Z,45.60
2023-02-11T22:49:07.423Z,45.45
2023-02-11T22:51:35.211Z,45.64
2023-02-11T22:54:06.821Z,45.66
2023-02-11T22:56:35.790Z,45.58
2023-02-11T22:59:07.356Z,45.67
2023-02-11T23:01:35.513Z,46.02
2023-02-11T23:04:06.609Z,45.75
2023-02-11T23:06:35.039Z,45.66
2023-02-11T23:09:08.746Z,46.01
2023-02-11T23:11:36.768Z,45.79
2023-02-11T23:14:05.200Z,46.12
2023-02-11T23:16:34.692Z,46.04
2023-02-11T23:19:08.245Z,45.96
2023-02-11T23:21:38.550Z,45.94
2023-02-11T23:24:12.838Z,46.20
2023-02-11T23:26:42.493Z,46.15
2023-02-11T23:29:11.258Z,46.14
2023-02-11T23:31:43.894Z,46.16
2023-02-11T23:34:14.989Z,46.23
2023-02-11T23:36:44.368Z,46.19
2023-02-11T23:39:15.875Z,46.09
2023-02-11T23:41:44.154Z,46.24
2023-02-11T23:44:12.389Z,46.18
2023-02-11T23:46:40.095Z,45.95
2023-02-11T23:49:07.982Z,46.28
2023-02-11T23:51:36.081Z,46.15
2023-02-11T23:54:04.110Z,45.93
2023-02-11T23:56:31.932Z,46.32
2023-02-11T23:58:59.786Z,46.40
